Time;durP1;ratioP1;P1;durP2;ratioP2;P2;SDS_P1;SDS_P2;PMS_P1;PMS_P2;Temp;Humidity;BMP_temperature;BMP_pressure;BME280_temperature;BME280_humidity;BME280_pressure;Samples;Min_cycle;Max_cycle;Signal;HPM_P1;HPM_P2
2024/01/26 00:00:28;;;;;;;;;;;;;;;8.98;100.00;100079.06;5064041;28;19920;-50
2024/01/26 00:02:58;;;;;;;;;;;;;;;8.93;100.00;100092.31;5062190;28;19927;-55
2024/01/26 00:05:25;;;;;;;;;;;;;;;8.91;100.00;100095.44;5063863;28;19962;-52
2024/01/26 00:07:52;;;;;;;;;;;;;;;8.88;100.00;100115.47;5070050;28;19932;-54
2024/01/26 00:10:20;;;;;;;;;;;;;;;8.86;100.00;100111.44;5057961;28;19927;-51
2024/01/26 00:12:47;;;;;;;;;;;;;;;8.79;100.00;100106.50;5052104;28;19925;-54
2024/01/26 00:15:14;;;;;;;;;;;;;;;8.77;100.00;100121.81;5055978;28;19928;-52
2024/01/26 00:17:41;;;;;;;;;;;;;;;8.72;100.00;100131.13;5069163;28;19927;-49
2024/01/26 00:20:09;;;;;;;;;;;;;;;8.71;100.00;100137.78;5068390;28;20370;-49
2024/01/26 00:22:36;;;;;;;;;;;;;;;8.65;100.00;100143.91;5065369;28;19928;-51
2024/01/26 00:25:04;;;;;;;;;;;;;;;8.60;100.00;100144.97;5068890;28;19924;-53
2024/01/26 00:27:31;;;;;;;;;;;;;;;8.56;100.00;100146.78;5066704;28;19930;-53
2024/01/26 00:29:58;;;;;;;;;;;;;;;8.54;100.00;100154.63;5072575;28;19924;-51
2024/01/26 00:32:25;;;;;;;;;;;;;;;8.51;100.00;100172.66;5067826;28;20286;-55
2024/01/26 00:34:53;;;;;;;;;;;;;;;8.47;100.00;100177.25;5067980;28;19927;-50
2024/01/26 00:37:20;;;;;;;;;;;;;;;8.42;100.00;100193.22;5068154;28;19925;-54
2024/01/26 00:39:47;;;;;;;;;;;;;;;8.27;100.00;100207.69;5067577;28;19920;-49
2024/01/26 00:42:14;;;;;;;;;;;;;;;8.03;100.00;100241.50;5066967;28;19920;-50
2024/01/26 00:44:41;;;;;;;;;;;;;;;7.85;100.00;100257.41;5067919;28;19921;-49
2024/01/26 00:47:09;;;;;;;;;;;;;;;7.73;100.00;100279.41;5066326;28;20290;-54
2024/01/26 00:49:36;;;;;;;;;;;;;;;7.59;100.00;100298.16;5066374;28;19936;-53
2024/01/26 00:52:15;;;;;;;;;;;;;;;7.49;100.00;100298.56;5068776;28;20317;-54
2024/01/26 00:54:42;;;;;;;;;;;;;;;7.41;100.00;100299.44;5068691;28;19924;-52
2024/01/26 00:57:09;;;;;;;;;;;;;;;7.34;100.00;100279.88;5068300;28;20362;-55
2024/01/26 00:59:36;;;;;;;;;;;;;;;7.30;100.00;100270.69;5069004;28;19921;-52
2024/01/26 01:02:03;;;;;;;;;;;;;;;7.29;100.00;100291.09;5051612;28;19921;-53
2024/01/26 01:04:32;;;;;;;;;;;;;;;7.22;100.00;100293.56;5077047;28;19924;-53
2024/01/26 01:06:59;;;;;;;;;;;;;;;7.21;100.00;100313.97;5067883;28;19921;-52
2024/01/26 01:09:26;;;;;;;;;;;;;;;7.18;100.00;100331.16;5054838;28;19924;-54
2024/01/26 01:11:55;;;;;;;;;;;;;;;7.17;100.00;100341.38;5065620;28;20397;-51
2024/01/26 01:14:22;;;;;;;;;;;;;;;7.16;100.00;100360.97;5061283;28;20611;-51
2024/01/26 01:16:50;;;;;;;;;;;;;;;7.13;100.00;100364.38;5064885;28;19924;-53
2024/01/26 01:19:17;;;;;;;;;;;;;;;7.10;100.00;100387.06;5054957;28;19925;-53
2024/01/26 01:21:45;;;;;;;;;;;;;;;7.10;100.00;100379.63;5068256;28;19931;-52
2024/01/26 01:24:12;;;;;;;;;;;;;;;7.07;100.00;100396.78;5050199;28;20669;-54
2024/01/26 01:26:39;;;;;;;;;;;;;;;7.05;100.00;100404.56;5067533;28;19928;-55
2024/01/26 01:29:08;;;;;;;;;;;;;;;6.97;100.00;100421.13;5061410;28;20391;-53
2024/01/26 01:31:35;;;;;;;;;;;;;;;6.92;100.00;100399.28;5056641;28;20424;-49
2024/01/26 01:34:05;;;;;;;;;;;;;;;6.90;100.00;100418.88;5067799;28;19927;-53
2024/01/26 01:36:32;;;;;;;;;;;;;;;6.86;100.00;100419.88;5062585;28;19926;-50
2024/01/26 01:38:59;;;;;;;;;;;;;;;6.80;100.00;100412.94;5062945;28;19932;-53
2024/01/26 01:41:27;;;;;;;;;;;;;;;6.74;100.00;100426.06;5064870;28;19927;-49
2024/01/26 01:43:54;;;;;;;;;;;;;;;6.71;100.00;100422.00;5067393;28;19928;-52
2024/01/26 01:46:22;;;;;;;;;;;;;;;6.66;100.00;100444.19;5067015;28;19921;-54
2024/01/26 01:48:50;;;;;;;;;;;;;;;6.61;100.00;100447.13;5059424;28;19931;-50
2024/01/26 01:51:18;;;;;;;;;;;;;;;6.55;100.00;100462.16;5066629;28;19920;-48
2024/01/26 01:53:46;;;;;;;;;;;;;;;6.52;100.00;100476.56;5067329;28;19928;-50
2024/01/26 01:56:14;;;;;;;;;;;;;;;6.49;100.00;100485.44;5055993;28;20290;-53
2024/01/26 01:58:42;;;;;;;;;;;;;;;6.45;100.00;100489.19;5065181;28;20286;-52
2024/01/26 02:01:09;;;;;;;;;;;;;;;6.40;100.00;100511.34;5067597;28;20966;-54
2024/01/26 02:03:36;;;;;;;;;;;;;;;6.35;100.00;100512.31;5063233;28;20366;-52
2024/01/26 02:06:04;;;;;;;;;;;;;;;6.31;100.00;100533.31;5062649;28;19920;-48
2024/01/26 02:08:34;;;;;;;;;;;;;;;6.30;100.00;100534.44;5067140;28;20378;-51
2024/01/26 02:11:02;;;;;;;;;;;;;;;6.27;99.99;100548.88;5067089;28;19928;-52
2024/01/26 02:13:30;;;;;;;;;;;;;;;6.23;99.68;100542.38;5067925;28;19928;-53
2024/01/26 02:15:57;;;;;;;;;;;;;;;6.19;99.72;100549.66;5065572;28;19921;-54
2024/01/26 02:18:24;;;;;;;;;;;;;;;6.15;99.61;100573.41;5067285;28;19924;-48
2024/01/26 02:20:52;;;;;;;;;;;;;;;6.11;99.92;100569.69;5067589;28;19927;-50
2024/01/26 02:23:22;;;;;;;;;;;;;;;6.07;99.54;100582.44;5047656;28;19921;-53
2024/01/26 02:25:50;;;;;;;;;;;;;;;5.97;99.46;100594.53;5059733;28;19957;-51
2024/01/26 02:28:17;;;;;;;;;;;;;;;5.93;99.53;100606.50;5075030;28;19935;-53
2024/01/26 02:30:44;;;;;;;;;;;;;;;5.92;99.91;100597.44;5045052;28;20385;-54
2024/01/26 02:33:11;;;;;;;;;;;;;;;5.91;99.73;100622.47;5065940;28;20277;-53
2024/01/26 02:35:39;;;;;;;;;;;;;;;5.88;99.94;100634.88;5063391;28;19935;-49
2024/01/26 02:38:06;;;;;;;;;;;;;;;5.88;100.00;100654.13;5064209;28;19920;-51
2024/01/26 02:40:33;;;;;;;;;;;;;;;5.90;100.00;100662.06;5067274;28;19930;-53
2024/01/26 02:43:01;;;;;;;;;;;;;;;5.88;100.00;100654.13;5066283;28;19927;-49
2024/01/26 02:45:28;;;;;;;;;;;;;;;5.85;100.00;100640.22;5066919;28;19928;-54
2024/01/26 02:47:56;;;;;;;;;;;;;;;5.81;100.00;100650.19;5069833;28;19931;-51
2024/01/26 02:50:24;;;;;;;;;;;;;;;5.77;100.00;100665.69;5065703;28;19920;-52
2024/01/26 02:52:51;;;;;;;;;;;;;;;5.73;100.00;100671.00;5069659;28;20318;-51
2024/01/26 02:55:18;;;;;;;;;;;;;;;5.69;100.00;100691.97;5071168;28;19924;-50
2024/01/26 02:57:45;;;;;;;;;;;;;;;5.61;100.00;100695.50;5064886;28;20354;-49
2024/01/26 03:02:51;;;;;;;;;;;;;;;5.49;100.00;100712.53;5002649;22;19921;-47
2024/01/26 03:05:18;;;;;;;;;;;;;;;5.46;100.00;100739.78;5008927;28;20279;-47
2024/01/26 03:07:45;;;;;;;;;;;;;;;5.44;100.00;100751.09;4995305;28;20436;-47
2024/01/26 03:10:12;;;;;;;;;;;;;;;5.39;99.96;100764.94;5009308;28;19929;-50
2024/01/26 03:12:39;;;;;;;;;;;;;;;5.35;99.69;100768.59;4991546;28;19952;-49
2024/01/26 03:15:06;;;;;;;;;;;;;;;5.31;99.50;100790.38;5009788;28;19932;-48
2024/01/26 03:17:33;;;;;;;;;;;;;;;5.30;99.57;100794.22;5008479;28;19928;-48
2024/01/26 03:20:01;;;;;;;;;;;;;;;5.27;99.19;100802.28;5008664;28;19926;-46
2024/01/26 03:22:28;;;;;;;;;;;;;;;5.21;99.12;100829.03;5008568;28;19944;-49
2024/01/26 03:24:55;;;;;;;;;;;;;;;5.19;99.11;100814.00;5008195;28;19921;-47
2024/01/26 03:27:24;;;;;;;;;;;;;;;5.15;98.55;100829.44;4992076;28;19929;-51
2024/01/26 03:29:51;;;;;;;;;;;;;;;5.11;98.41;100834.72;5008793;28;19922;-49
2024/01/26 03:32:19;;;;;;;;;;;;;;;5.05;98.03;100846.94;5008622;28;20390;-48
2024/01/26 03:34:46;;;;;;;;;;;;;;;5.03;97.77;100857.38;5008682;28;19928;-48
2024/01/26 03:37:13;;;;;;;;;;;;;;;5.01;97.90;100864.28;5008725;28;19921;-50
2024/01/26 03:39:40;;;;;;;;;;;;;;;4.99;97.54;100886.56;5008813;28;19929;-51
2024/01/26 03:42:10;;;;;;;;;;;;;;;4.95;97.35;100895.72;5009015;28;19921;-46
2024/01/26 03:44:38;;;;;;;;;;;;;;;4.93;97.57;100910.53;5008787;28;19929;-50
2024/01/26 03:47:05;;;;;;;;;;;;;;;4.92;97.63;100930.06;5008552;28;20697;-47
2024/01/26 03:49:33;;;;;;;;;;;;;;;4.89;97.44;100936.97;5008363;28;19925;-51
2024/01/26 03:52:00;;;;;;;;;;;;;;;4.85;97.23;100940.59;4999206;28;19943;-46
2024/01/26 03:54:27;;;;;;;;;;;;;;;4.82;97.13;100974.09;5009110;28;19925;-50
2024/01/26 03:56:55;;;;;;;;;;;;;;;4.79;97.11;100996.69;5007633;28;19921;-49
2024/01/26 03:59:22;;;;;;;;;;;;;;;4.74;96.79;100994.00;5008267;28;19925;-46
2024/01/26 04:01:49;;;;;;;;;;;;;;;4.74;96.99;100994.00;5007585;28;19933;-50
2024/01/26 04:04:16;;;;;;;;;;;;;;;4.75;96.83;101006.59;5008126;28;19947;-49
2024/01/26 04:06:43;;;;;;;;;;;;;;;4.71;96.82;101013.81;5001473;28;19937;-46
2024/01/26 04:09:11;;;;;;;;;;;;;;;4.71;96.73;101038.50;4991110;28;19925;-49
2024/01/26 04:11:38;;;;;;;;;;;;;;;4.73;96.92;101058.22;5007227;28;19936;-49
2024/01/26 04:14:06;;;;;;;;;;;;;;;4.69;96.60;101057.16;5008748;28;19925;-48
2024/01/26 04:16:33;;;;;;;;;;;;;;;4.67;96.35;101060.22;5006285;28;20410;-47
2024/01/26 04:19:00;;;;;;;;;;;;;;;4.66;96.74;101080.50;5007945;28;19932;-48
2024/01/26 04:21:27;;;;;;;;;;;;;;;4.64;96.36;101068.22;5007444;28;20371;-46
2024/01/26 04:23:54;;;;;;;;;;;;;;;4.65;96.64;101080.81;4991475;28;19932;-47
2024/01/26 04:26:21;;;;;;;;;;;;;;;4.63;96.36;101080.31;5007892;28;19922;-46
2024/01/26 04:28:48;;;;;;;;;;;;;;;4.60;96.53;101089.13;5007749;28;19925;-46
2024/01/26 04:31:15;;;;;;;;;;;;;;;4.59;96.66;101080.06;5007190;28;19925;-49
2024/01/26 04:33:42;;;;;;;;;;;;;;;4.59;96.46;101093.78;5006709;28;20617;-47
2024/01/26 04:36:10;;;;;;;;;;;;;;;4.57;96.49;101097.94;5006433;28;20626;-48
2024/01/26 04:38:37;;;;;;;;;;;;;;;4.57;96.66;101111.66;5007328;28;19932;-51
2024/01/26 04:41:04;;;;;;;;;;;;;;;4.54;96.56;101115.81;5006833;28;19925;-51
2024/01/26 04:43:32;;;;;;;;;;;;;;;4.52;96.57;101119.94;5006798;28;19925;-51
2024/01/26 04:46:00;;;;;;;;;;;;;;;4.49;96.55;101134.25;5007303;28;19929;-46
2024/01/26 04:48:27;;;;;;;;;;;;;;;4.48;96.70;101138.09;5006798;28;19925;-51
2024/01/26 04:50:54;;;;;;;;;;;;;;;4.45;96.71;101149.66;5007344;28;19921;-46
2024/01/26 04:53:21;;;;;;;;;;;;;;;4.44;96.99;101145.28;5007379;28;19929;-47
2024/01/26 04:55:48;;;;;;;;;;;;;;;4.41;97.17;101143.13;5005809;28;19925;-48
2024/01/26 04:58:15;;;;;;;;;;;;;;;4.39;96.95;101150.84;5006027;28;19932;-50
2024/01/26 05:00:43;;;;;;;;;;;;;;;4.37;97.00;101159.34;5006867;28;20474;-46
2024/01/26 05:03:10;;;;;;;;;;;;;;;4.35;97.07;101158.81;5006732;28;20382;-49
2024/01/26 05:05:39;;;;;;;;;;;;;;;4.34;97.12;101172.81;5007617;28;19925;-47
2024/01/26 05:08:07;;;;;;;;;;;;;;;4.29;97.12;101181.91;5004207;28;20371;-48
2024/01/26 05:10:34;;;;;;;;;;;;;;;4.29;97.22;101192.88;5007054;28;19944;-48
2024/01/26 05:13:01;;;;;;;;;;;;;;;4.27;97.36;101203.31;5005625;28;20302;-52
2024/01/26 05:15:28;;;;;;;;;;;;;;;4.23;97.33;101200.38;5007172;28;19928;-47
2024/01/26 05:17:55;;;;;;;;;;;;;;;4.21;97.09;101199.81;5007391;28;19925;-48
2024/01/26 05:20:23;;;;;;;;;;;;;;;4.21;97.17;101205.31;5007496;28;20397;-51
2024/01/26 05:22:50;;;;;;;;;;;;;;;4.21;97.18;101220.91;5007581;28;20374;-51
2024/01/26 05:25:17;;;;;;;;;;;;;;;4.15;96.99;101225.66;5007436;28;19922;-47
2024/01/26 05:27:44;;;;;;;;;;;;;;;4.17;97.01;101233.59;5006790;28;19936;-51
2024/01/26 05:30:11;;;;;;;;;;;;;;;4.14;97.22;101243.19;5007463;28;20298;-51
2024/01/26 05:32:38;;;;;;;;;;;;;;;4.12;97.28;101250.91;4989408;28;20202;-46
2024/01/26 05:35:06;;;;;;;;;;;;;;;4.10;97.22;101271.47;5007498;28;19921;-49
2024/01/26 05:37:33;;;;;;;;;;;;;;;4.08;97.29;101266.28;4981469;28;19933;-51
2024/01/26 05:40:03;;;;;;;;;;;;;;;4.05;97.27;101287.97;5006812;28;19932;-49
2024/01/26 05:42:30;;;;;;;;;;;;;;;4.02;97.38;101289.38;5004765;28;19932;-48
2024/01/26 05:44:57;;;;;;;;;;;;;;;4.03;97.46;101299.19;5006141;28;19921;-48
2024/01/26 05:47:24;;;;;;;;;;;;;;;4.04;97.36;101297.28;5007119;28;19932;-48
2024/01/26 05:49:51;;;;;;;;;;;;;;;4.03;97.43;101296.47;5006790;28;19937;-51
2024/01/26 05:52:18;;;;;;;;;;;;;;;4.01;97.49;101303.34;5006349;28;20383;-50
2024/01/26 05:54:45;;;;;;;;;;;;;;;3.99;97.56;101311.03;5007180;28;19921;-47
2024/01/26 05:57:13;;;;;;;;;;;;;;;3.96;97.40;101303.38;4989522;28;19980;-50
2024/01/26 05:59:41;;;;;;;;;;;;;;;3.96;97.74;101317.91;5006163;28;19932;-46
2024/01/26 06:02:08;;;;;;;;;;;;;;;3.95;97.77;101316.25;4980058;28;19933;-47
2024/01/26 06:04:35;;;;;;;;;;;;;;;3.94;97.58;101325.59;4990521;28;19932;-49
2024/01/26 06:07:02;;;;;;;;;;;;;;;3.91;97.48;101337.13;4997633;28;20584;-52
2024/01/26 06:09:30;;;;;;;;;;;;;;;3.92;97.72;101333.25;4986875;28;19926;-50
2024/01/26 06:11:57;;;;;;;;;;;;;;;3.92;97.80;101338.75;4989264;28;20394;-51
2024/01/26 06:14:24;;;;;;;;;;;;;;;3.92;97.59;101340.69;4998925;28;19921;-49
2024/01/26 06:16:51;;;;;;;;;;;;;;;3.88;97.36;101337.69;4987517;28;19932;-50
2024/01/26 06:19:18;;;;;;;;;;;;;;;3.90;97.84;101338.22;4969724;28;19922;-48
2024/01/26 06:21:46;;;;;;;;;;;;;;;3.91;97.59;101353.56;4992557;28;20359;-49
2024/01/26 06:24:13;;;;;;;;;;;;;;;3.91;97.44;101339.03;4991105;28;20413;-47
2024/01/26 06:26:40;;;;;;;;;;;;;;;3.90;97.45;101349.19;4992953;28;20291;-47
2024/01/26 06:29:07;;;;;;;;;;;;;;;3.88;97.36;101337.69;4995738;28;19926;-47
2024/01/26 06:31:34;;;;;;;;;;;;;;;3.90;97.21;101343.69;4994013;28;19937;-47
2024/01/26 06:34:01;;;;;;;;;;;;;;;3.91;97.25;101348.09;4991385;28;20346;-48
2024/01/26 06:36:29;;;;;;;;;;;;;;;3.88;97.13;101354.13;4990692;28;19921;-51
2024/01/26 06:38:56;;;;;;;;;;;;;;;3.86;97.07;101337.16;4990702;28;19925;-48
2024/01/26 06:41:23;;;;;;;;;;;;;;;3.85;97.02;101354.69;4991713;28;19922;-53
2024/01/26 06:43:51;;;;;;;;;;;;;;;3.84;96.59;101364.00;4990412;28;19929;-48
2024/01/26 06:46:24;;;;;;;;;;;;;;;3.82;96.57;101357.19;5001559;28;19925;-51
2024/01/26 06:48:51;;;;;;;;;;;;;;;3.81;96.87;101342.69;4990406;28;19921;-48
2024/01/26 06:51:19;;;;;;;;;;;;;;;3.80;96.42;101362.13;5000568;28;20394;-47
2024/01/26 06:53:46;;;;;;;;;;;;;;;3.77;96.43;101365.44;4973654;28;19936;-50
2024/01/26 06:56:13;;;;;;;;;;;;;;;3.76;96.18;101364.59;5002150;28;19926;-48
2024/01/26 06:58:40;;;;;;;;;;;;;;;3.75;96.13;101370.38;4993216;28;20295;-53
2024/01/26 07:01:08;;;;;;;;;;;;;;;3.76;96.26;101364.59;5006466;28;19944;-54
2024/01/26 07:03:35;;;;;;;;;;;;;;;3.75;95.97;101381.34;4999104;28;19932;-49
2024/01/26 07:06:02;;;;;;;;;;;;;;;3.73;96.32;101384.38;5009858;28;19940;-52
2024/01/26 07:08:29;;;;;;;;;;;;;;;3.73;96.11;101381.63;5006843;28;20312;-49
2024/01/26 07:10:56;;;;;;;;;;;;;;;3.72;96.14;101403.81;5009002;28;19926;-47
2024/01/26 07:13:24;;;;;;;;;;;;;;;3.69;96.21;101405.19;5008956;28;19928;-49
2024/01/26 07:15:51;;;;;;;;;;;;;;;3.66;96.14;101406.59;5009056;28;19932;-49
2024/01/26 07:18:18;;;;;;;;;;;;;;;3.65;95.74;101421.34;5008835;28;19928;-45
2024/01/26 07:20:45;;;;;;;;;;;;;;;3.66;95.56;101427.66;5008686;28;19929;-53
2024/01/26 07:23:13;;;;;;;;;;;;;;;3.66;95.56;101438.63;5003414;28;19926;-49
2024/01/26 07:25:40;;;;;;;;;;;;;;;3.66;95.45;101435.88;5008097;28;20303;-49
2024/01/26 07:28:07;;;;;;;;;;;;;;;3.65;95.42;101443.25;5009360;28;19925;-47
2024/01/26 07:30:34;;;;;;;;;;;;;;;3.64;95.25;101457.25;5007987;28;20307;-49
2024/01/26 07:33:01;;;;;;;;;;;;;;;3.66;95.63;101466.00;5008482;28;19932;-48
2024/01/26 07:35:29;;;;;;;;;;;;;;;3.64;95.32;101460.00;5006349;28;19933;-46
2024/01/26 07:37:56;;;;;;;;;;;;;;;3.63;95.68;101455.59;5009293;28;19921;-49
2024/01/26 07:40:23;;;;;;;;;;;;;;;3.62;95.45;101475.88;5008161;28;19926;-50
2024/01/26 07:42:50;;;;;;;;;;;;;;;3.63;95.78;101488.47;4997903;28;20487;-51
2024/01/26 07:45:17;;;;;;;;;;;;;;;3.62;95.60;101503.25;5009168;28;20624;-46
2024/01/26 07:47:44;;;;;;;;;;;;;;;3.61;95.60;101512.56;5008971;28;19929;-49
2024/01/26 07:50:12;;;;;;;;;;;;;;;3.60;95.73;101519.94;5008604;28;19932;-51
2024/01/26 07:52:40;;;;;;;;;;;;;;;3.63;95.91;101532.25;5003771;28;19922;-49
2024/01/26 07:55:09;;;;;;;;;;;;;;;3.61;95.71;101546.25;5014516;28;20402;-49
2024/01/26 07:57:37;;;;;;;;;;;;;;;3.61;95.84;101550.91;5007535;28;20422;-48
2024/01/26 08:00:06;;;;;;;;;;;;;;;3.60;95.92;101557.50;5006818;28;19925;-48
2024/01/26 08:02:33;;;;;;;;;;;;;;;3.62;96.14;101566.25;5001933;28;19921;-50
2024/01/26 08:05:00;;;;;;;;;;;;;;;3.59;95.94;101573.09;5009021;28;19925;-47
2024/01/26 08:07:28;;;;;;;;;;;;;;;3.61;96.44;101589.22;5007396;28;19925;-47
2024/01/26 08:09:55;;;;;;;;;;;;;;;3.63;96.28;101604.28;5010016;28;19928;-48
2024/01/26 08:12:22;;;;;;;;;;;;;;;3.63;96.53;101608.94;5009284;28;19925;-49
2024/01/26 08:15:09;;;;;;;;;;;;;;;3.64;96.54;101616.06;5005785;28;19968;-51
2024/01/26 08:17:37;;;;;;;;;;;;;;;3.66;96.53;101619.34;4997095;28;19925;-46
2024/01/26 08:20:05;;;;;;;;;;;;;;;3.67;96.59;101620.97;5005106;28;19925;-49
2024/01/26 08:22:38;;;;;;;;;;;;;;;3.68;96.77;101642.59;4999996;28;19925;-50
2024/01/26 08:25:06;;;;;;;;;;;;;;;3.68;96.82;101650.81;5009411;28;19922;-49
2024/01/26 08:27:33;;;;;;;;;;;;;;;3.70;96.58;101658.78;5009218;28;19932;-45
2024/01/26 08:30:00;;;;;;;;;;;;;;;3.69;96.71;101665.34;4991368;28;19949;-46
2024/01/26 08:32:28;;;;;;;;;;;;;;;3.70;97.03;101672.47;5007950;28;19926;-46
2024/01/26 08:34:56;;;;;;;;;;;;;;;3.72;96.99;101675.75;5004805;28;20423;-48
2024/01/26 08:37:23;;;;;;;;;;;;;;;3.71;97.09;101682.31;5008484;28;19933;-48
2024/01/26 08:39:50;;;;;;;;;;;;;;;3.74;97.15;101692.72;5008028;28;19922;-49
2024/01/26 08:42:17;;;;;;;;;;;;;;;3.77;97.16;101694.06;5007663;28;19921;-47
2024/01/26 08:44:45;;;;;;;;;;;;;;;3.78;97.35;101699.28;5000127;28;19925;-49
2024/01/26 08:47:12;;;;;;;;;;;;;;;3.80;97.34;101713.53;5007978;28;20398;-51
2024/01/26 08:49:39;;;;;;;;;;;;;;;3.84;97.30;101713.78;5006481;28;19925;-48
2024/01/26 08:52:07;;;;;;;;;;;;;;;3.84;97.01;101714.59;5007584;28;19921;-49
2024/01/26 08:54:34;;;;;;;;;;;;;;;3.85;97.04;101727.19;5007896;28;19921;-46
2024/01/26 08:57:01;;;;;;;;;;;;;;;3.85;96.99;101731.84;5008151;28;19925;-46
2024/01/26 08:59:28;;;;;;;;;;;;;;;3.89;97.04;101739.22;5008599;28;19921;-48
2024/01/26 09:01:56;;;;;;;;;;;;;;;3.90;96.80;101743.63;5005966;28;19925;-46
2024/01/26 09:04:23;;;;;;;;;;;;;;;3.90;96.68;101756.50;5007437;28;19922;-48
2024/01/26 09:06:50;;;;;;;;;;;;;;;3.91;96.91;101758.97;4990240;28;19925;-49
2024/01/26 09:09:26;;;;;;;;;;;;;;;3.92;97.09;101777.03;5008254;28;20409;-50
2024/01/26 09:11:53;;;;;;;;;;;;;;;3.92;96.61;101771.56;5006849;28;20300;-50
2024/01/26 09:14:20;;;;;;;;;;;;;;;3.93;96.80;101780.59;5008142;28;20338;-50
2024/01/26 09:16:53;;;;;;;;;;;;;;;3.93;96.82;101781.44;5007747;28;19928;-49
2024/01/26 09:19:20;;;;;;;;;;;;;;;3.95;96.73;101787.44;4990239;28;19925;-50
2024/01/26 09:21:49;;;;;;;;;;;;;;;3.96;96.74;101789.09;5006582;28;20461;-47
2024/01/26 09:24:16;;;;;;;;;;;;;;;3.96;96.84;101800.06;5004534;28;20591;-47
2024/01/26 09:26:44;;;;;;;;;;;;;;;3.99;96.77;101798.69;5007973;28;19925;-49
2024/01/26 09:29:11;;;;;;;;;;;;;;;4.02;96.72;101809.94;5007913;28;19922;-48
2024/01/26 09:31:38;;;;;;;;;;;;;;;4.06;96.53;101811.00;5003118;28;19925;-49
2024/01/26 09:34:06;;;;;;;;;;;;;;;4.10;96.73;101806.59;5007865;28;19928;-48
2024/01/26 09:36:34;;;;;;;;;;;;;;;4.15;96.60;101803.88;5008148;28;20561;-47
2024/01/26 09:39:01;;;;;;;;;;;;;;;4.18;96.37;101814.25;4994774;28;19922;-53
2024/01/26 09:41:29;;;;;;;;;;;;;;;4.21;96.57;101813.72;5007571;28;19932;-46
2024/01/26 09:43:56;;;;;;;;;;;;;;;4.24;96.25;101826.88;5005696;28;19930;-48
2024/01/26 09:46:23;;;;;;;;;;;;;;;4.26;96.49;101829.34;5007795;28;19932;-50
2024/01/26 09:48:53;;;;;;;;;;;;;;;4.30;96.22;101834.00;5006986;28;19921;-46
2024/01/26 09:51:22;;;;;;;;;;;;;;;4.34;96.29;101845.25;5006990;28;20391;-49
2024/01/26 09:53:51;;;;;;;;;;;;;;;4.35;96.31;101844.13;5007206;28;20648;-46
2024/01/26 09:56:19;;;;;;;;;;;;;;;4.40;96.19;101857.00;5007788;28;19922;-49
2024/01/26 09:58:46;;;;;;;;;;;;;;;4.43;96.37;101860.00;5006432;28;19944;-49
2024/01/26 10:01:15;;;;;;;;;;;;;;;4.47;96.25;101866.59;5007055;28;19945;-49
2024/01/26 10:03:42;;;;;;;;;;;;;;;4.52;96.09;101871.25;4992067;28;19944;-49
2024/01/26 10:06:10;;;;;;;;;;;;;;;4.54;96.15;101883.56;5006116;28;19925;-49
2024/01/26 10:08:41;;;;;;;;;;;;;;;4.58;96.34;101875.63;4999012;28;19925;-45
2024/01/26 10:11:08;;;;;;;;;;;;;;;4.62;96.28;101890.41;5001441;28;19921;-50
2024/01/26 10:13:35;;;;;;;;;;;;;;;4.65;95.91;101887.94;4997590;28;19933;-49
2024/01/26 10:16:05;;;;;;;;;;;;;;;4.69;96.11;101891.75;5006910;28;19993;-48
2024/01/26 10:18:39;;;;;;;;;;;;;;;4.73;96.03;101883.81;5007441;28;19925;-52
2024/01/26 10:21:06;;;;;;;;;;;;;;;4.75;95.92;101901.63;5005171;28;19932;-46
2024/01/26 10:23:33;;;;;;;;;;;;;;;4.79;95.61;101907.41;5007467;28;19925;-48
2024/01/26 10:26:01;;;;;;;;;;;;;;;4.82;95.59;101904.06;5005475;28;19945;-53
2024/01/26 10:28:28;;;;;;;;;;;;;;;4.85;95.49;101911.75;4997204;28;20378;-48
2024/01/26 10:30:55;;;;;;;;;;;;;;;4.88;95.63;101916.69;5004224;28;19929;-49
2024/01/26 10:33:23;;;;;;;;;;;;;;;4.90;95.66;101919.97;4998126;28;19925;-48
2024/01/26 10:36:00;;;;;;;;;;;;;;;4.93;95.27;101922.16;5006627;28;19955;-46
2024/01/26 10:38:31;;;;;;;;;;;;;;;4.97;95.29;101930.66;5002181;28;20003;-48
2024/01/26 10:41:01;;;;;;;;;;;;;;;5.01;95.49;101935.31;5002294;28;19937;-52
2024/01/26 10:43:29;;;;;;;;;;;;;;;5.04;95.13;101947.63;5007558;28;19929;-50
2024/01/26 10:45:57;;;;;;;;;;;;;;;5.07;95.19;101942.44;5006374;28;19925;-51
2024/01/26 10:48:25;;;;;;;;;;;;;;;5.12;95.38;101960.78;5007062;28;19932;-45
2024/01/26 10:50:53;;;;;;;;;;;;;;;5.16;94.84;101957.22;5004098;28;19921;-49
2024/01/26 10:53:20;;;;;;;;;;;;;;;5.17;94.64;101964.34;4985460;28;19932;-48
2024/01/26 10:55:51;;;;;;;;;;;;;;;5.22;94.74;101975.31;5007113;28;19930;-49
2024/01/26 10:58:19;;;;;;;;;;;;;;;5.26;94.67;101981.91;5004474;28;19936;-48
2024/01/26 11:00:46;;;;;;;;;;;;;;;5.29;94.72;101983.25;4999544;28;19922;-52
2024/01/26 11:03:14;;;;;;;;;;;;;;;5.32;94.58;101983.50;5004947;28;19928;-50
2024/01/26 11:05:46;;;;;;;;;;;;;;;5.34;94.16;101996.97;5007669;28;19932;-47
2024/01/26 11:08:17;;;;;;;;;;;;;;;5.36;94.11;102011.25;5009647;28;19925;-46
2024/01/26 11:10:46;;;;;;;;;;;;;;;5.39;94.22;101997.78;4994624;28;19948;-50
2024/01/26 11:13:15;;;;;;;;;;;;;;;5.41;94.05;101992.81;5009532;28;19936;-50
2024/01/26 11:15:43;;;;;;;;;;;;;;;5.46;94.05;102009.28;5007591;28;19921;-49
2024/01/26 11:18:22;;;;;;;;;;;;;;;5.48;93.61;102009.00;5008304;28;19921;-51
2024/01/26 11:20:50;;;;;;;;;;;;;;;5.50;93.54;102013.13;5004770;28;19925;-49
2024/01/26 11:23:17;;;;;;;;;;;;;;;5.53;93.48;102018.03;5010423;28;20374;-49
2024/01/26 11:25:46;;;;;;;;;;;;;;;5.56;93.57;102021.34;5009602;28;19928;-47
2024/01/26 11:28:15;;;;;;;;;;;;;;;5.57;93.85;102022.97;5009410;28;19929;-48
2024/01/26 11:30:54;;;;;;;;;;;;;;;5.59;93.56;102023.53;5010632;28;19925;-47
2024/01/26 11:33:21;;;;;;;;;;;;;;;5.60;93.25;102017.75;5010448;28;19921;-51
2024/01/26 11:35:49;;;;;;;;;;;;;;;5.62;93.16;102022.94;4992753;28;19929;-48
2024/01/26 11:38:18;;;;;;;;;;;;;;;5.65;93.16;102019.63;5008513;28;19922;-46
2024/01/26 11:40:46;;;;;;;;;;;;;;;5.67;93.28;102026.50;5006807;28;19925;-49
2024/01/26 11:43:13;;;;;;;;;;;;;;;5.69;93.26;102026.22;5007439;28;19925;-53
2024/01/26 11:45:42;;;;;;;;;;;;;;;5.68;92.97;102028.16;5003366;28;19929;-49
2024/01/26 11:48:10;;;;;;;;;;;;;;;5.72;93.04;102025.66;5007122;28;19921;-48
2024/01/26 11:50:40;;;;;;;;;;;;;;;5.74;93.03;102029.78;5009386;28;19936;-47
2024/01/26 11:53:08;;;;;;;;;;;;;;;5.77;93.13;102018.19;5009810;28;20463;-49
2024/01/26 11:55:35;;;;;;;;;;;;;;;5.80;93.07;102025.88;5004524;28;19961;-50
2024/01/26 11:58:02;;;;;;;;;;;;;;;5.83;92.79;102030.00;5007626;28;20315;-47
2024/01/26 12:00:31;;;;;;;;;;;;;;;5.86;92.97;102037.72;5009036;28;19932;-45
2024/01/26 12:02:59;;;;;;;;;;;;;;;5.90;92.88;102044.31;5010109;28;19926;-51
2024/01/26 12:05:26;;;;;;;;;;;;;;;5.92;92.86;102033.84;5009496;28;19925;-51
2024/01/26 12:07:55;;;;;;;;;;;;;;;5.94;92.76;102039.88;5009171;28;20387;-48
2024/01/26 12:10:23;;;;;;;;;;;;;;;5.95;92.87;102025.88;5009651;28;19936;-51
2024/01/26 12:12:51;;;;;;;;;;;;;;;5.98;92.97;102032.72;4991909;28;19932;-52
2024/01/26 12:15:18;;;;;;;;;;;;;;;6.02;92.85;102036.53;5001216;28;19929;-49
2024/01/26 12:17:47;;;;;;;;;;;;;;;6.04;92.80;102028.81;5002318;28;19921;-46
2024/01/26 12:20:14;;;;;;;;;;;;;;;6.09;93.03;102042.53;5006458;28;19929;-47
2024/01/26 12:22:42;;;;;;;;;;;;;;;6.11;92.80;102026.59;5023729;28;19925;-50
2024/01/26 12:25:12;;;;;;;;;;;;;;;6.14;92.91;102034.28;5008253;28;19930;-47
2024/01/26 12:27:42;;;;;;;;;;;;;;;6.16;92.79;102036.72;5007648;28;20495;-48
2024/01/26 12:30:10;;;;;;;;;;;;;;;6.21;93.06;102029.28;5009306;28;19925;-48
2024/01/26 12:32:38;;;;;;;;;;;;;;;6.26;93.21;102032.00;5000209;28;19932;-53
2024/01/26 12:35:06;;;;;;;;;;;;;;;6.28;92.83;102021.50;5008296;28;19926;-50
2024/01/26 12:37:33;;;;;;;;;;;;;;;6.31;92.83;102034.69;4998325;28;20302;-48
2024/01/26 12:40:00;;;;;;;;;;;;;;;6.34;93.11;102025.06;5008393;28;19937;-48
2024/01/26 12:42:27;;;;;;;;;;;;;;;6.37;92.92;102033.56;5008477;28;19925;-50
2024/01/26 12:44:55;;;;;;;;;;;;;;;6.40;92.83;102021.16;5008596;28;19925;-53
2024/01/26 12:47:23;;;;;;;;;;;;;;;6.42;92.95;102017.03;5008494;28;19933;-46
2024/01/26 12:49:52;;;;;;;;;;;;;;;6.46;92.71;102036.53;5006172;28;19932;-52